Latest Weather Observations for St Helens

IDT60801

Issued at 9:32 pm EST Wednesday 26 April 2017 (issued every 30 minutes, with the page automatically refreshed every 10 minutes)

About weather observations | Map of weather stations | Latest weather observations for TAS | Other Formats
Station Details ID: 092120 Name: ST HELENS AERODROME Lat: -41.34 Lon: 148.28 Height: 48.0 m
Data from the previous 72 hours. | See also: Recent months at St Helens
Date/Time
EST
Temp
°C
App
Temp
°C
Dew
Point
°C
Rel
Hum
%
Delta-T
°C
Wind Press
QNH
hPa
Press
MSL
hPa
Rain since
9am
mm
Dir  Spd
km/h
Gust
km/h
Spd
kts
Gust
kts
26/09:30pm 7.7 3.6 2.2 68 2.3 SSW 13 20 7 11 1014.8 - 1.2
26/09:00pm 7.9 3.8 2.0 66 2.4 SSW 13 22 7 12 1014.6 1014.6 1.2
26/08:30pm 7.9 4.1 2.0 66 2.4 SSW 11 22 6 12 1014.2 - 1.2
26/08:00pm 8.2 4.4 1.8 64 2.6 SW 11 17 6 9 1013.8 - 1.2
26/07:30pm 8.3 4.6 2.1 65 2.6 SSW 11 19 6 10 1013.4 - 1.2
26/07:00pm 7.8 4.2 2.7 70 2.1 SW 11 15 6 8 1013.0 - 1.2
26/06:30pm 8.3 5.4 2.8 68 2.3 SSW 7 11 4 6 1012.4 - 1.2
26/06:00pm 8.9 5.3 2.9 66 2.6 SSW 11 19 6 10 1011.9 1011.8 1.2
26/05:30pm 9.4 5.5 3.2 65 2.7 S 13 19 7 10 1011.2 - 1.2
26/05:00pm 9.5 6.4 3.5 66 2.6 S 9 13 5 7 1010.5 - 1.2
26/04:30pm 9.7 6.1 3.2 64 2.8 S 11 19 6 10 1010.0 - 1.2
26/04:00pm 10.3 6.7 2.9 60 3.2 S 11 19 6 10 1009.5 - 1.2
26/03:30pm 10.6 6.6 2.9 59 3.3 S 13 19 7 10 1009.1 - 1.2
26/03:00pm 10.6 7.2 4.1 64 2.9 S 11 17 6 9 1008.6 1008.6 1.2
26/02:30pm 10.4 6.5 3.2 61 3.1 SSW 13 20 7 11 1008.1 - 1.2
26/02:00pm 10.4 6.5 3.4 62 3.1 S 13 20 7 11 1007.7 - 1.2
26/01:30pm 10.3 7.2 5.5 72 2.2 S 11 17 6 9 1007.6 - 1.2
26/01:00pm 9.9 7.0 6.4 79 1.6 SSW 11 19 6 10 1007.2 - 1.2
26/12:30pm 9.2 5.4 5.8 79 1.6 SSW 15 24 8 13 1007.0 - 1.2
26/12:00pm 9.1 6.5 6.0 81 1.4 SSW 9 17 5 9 1006.9 1006.9 1.0
26/11:30am 8.9 5.6 6.3 84 1.2 SSW 13 22 7 12 1006.6 - 1.0
26/11:00am 8.9 5.8 7.4 90 0.7 SSW 13 20 7 11 1006.5 - 1.0
26/10:30am 9.3 6.7 7.7 90 0.8 S 11 19 6 10 1005.9 - 0.6
26/10:00am 9.2 5.3 7.2 87 0.9 S 17 28 9 15 1005.4 - 0.4
26/09:30am 9.5 6.2 8.1 91 0.7 S 15 24 8 13 1004.9 - 0.2
26/09:00am 9.8 7.5 8.9 94 0.4 S 11 17 6 9 1004.4 1004.5 7.4
26/08:30am 9.8 7.4 8.7 93 0.5 SSW 11 19 6 10 1004.0 - 6.8
26/08:00am 10.0 7.3 9.1 94 0.4 SSW 13 20 7 11 1003.3 - 6.8
26/07:30am 10.1 7.0 9.0 93 0.5 SSW 15 24 8 13 1002.7 - 6.6
26/07:00am 10.0 7.6 8.8 92 0.6 SSW 11 15 6 8 1002.0 - 6.6
26/06:30am 10.4 8.4 8.7 89 0.8 SSW 9 15 5 8 1001.5 - 6.0
26/06:00am 10.1 8.2 9.2 94 0.4 SSW 9 11 5 6 1000.9 1000.9 6.0
26/05:30am 10.1 8.8 9.3 95 0.4 SSW 6 9 3 5 1000.4 - 6.0
26/05:00am 9.7 8.1 8.9 95 0.4 SSW 7 9 4 5 1000.1 - 6.0
26/04:30am 9.7 9.4 8.8 94 0.4 CALM 0 0 0 0 999.8 - 6.0
26/04:00am 9.7 8.6 8.6 93 0.5 SW 4 6 2 3 999.4 - 6.0
26/03:30am 10.0 9.5 7.9 87 1.0 CALM 0 0 0 0 999.3 - 5.8
26/03:00am 10.2 8.9 7.6 84 1.3 WNW 4 6 2 3 999.6 999.6 4.8
26/02:30am 9.8 9.4 8.1 89 0.8 CALM 0 2 0 1 999.7 - 4.8
26/02:00am 10.0 8.4 7.9 87 1.0 WNW 6 7 3 4 999.8 - 4.8
26/01:30am 9.9 8.2 7.7 86 1.1 NNW 6 7 3 4 999.8 - 4.8
26/01:00am 9.4 8.2 8.2 92 0.6 W 4 7 2 4 1000.1 - 4.6
26/12:30am 9.5 8.2 7.6 88 0.9 WNW 4 7 2 4 1000.2 - 4.6
26/12:00am 10.5 9.3 7.9 84 1.3 NNW 4 9 2 5 1000.3 1000.3 4.6
 
Date/Time
EST
Temp
°C
App
Temp
°C
Dew
Point
°C
Rel
Hum
%
Delta-T
°C
Wind Press
QNH
hPa
Press
MSL
hPa
Rain since
9am
mm
Dir  Spd
km/h
Gust
km/h
Spd
kts
Gust
kts
25/11:30pm 11.5 9.9 8.9 84 1.3 N 7 9 4 5 1000.2 - 4.6
25/11:00pm 12.2 11.6 8.9 80 1.7 N 2 7 1 4 1000.1 - 4.6
25/10:30pm 11.8 9.8 8.8 82 1.5 NW 9 11 5 6 1000.4 - 4.6
25/10:00pm 12.4 10.4 8.7 78 1.8 NW 9 13 5 7 1000.5 - 4.6
25/09:30pm 13.2 11.2 8.7 74 2.3 WNW 9 15 5 8 1000.7 - 4.6
25/09:00pm 13.7 9.8 8.7 72 2.5 NW 19 26 10 14 1000.6 1000.6 4.6
25/08:41pm 13.5 10.1 9.2 75 2.2 NW 17 22 9 12 1000.6 - 4.6
25/08:30pm 13.7 10.7 9.4 75 2.2 NW 15 24 8 13 1000.5 - 4.6
25/08:16pm 13.4 10.1 9.6 78 1.9 NW 17 22 9 12 1000.4 - 4.6
25/08:00pm 13.9 11.5 9.9 77 2.1 NW 13 17 7 9 1000.4 - 4.6
25/07:30pm 14.3 12.5 10.9 80 1.8 NW 11 17 6 9 1000.6 - 4.6
25/07:00pm 13.8 12.1 11.1 84 1.4 W 11 20 6 11 1000.3 - 4.6
25/06:30pm 14.7 13.6 11.8 83 1.6 NNW 9 15 5 8 1000.2 - 4.6
25/06:00pm 14.9 15.0 13.8 93 0.6 NW 6 13 3 7 999.9 999.9 4.6
25/05:30pm 15.3 16.7 14.3 94 0.6 CALM 0 0 0 0 999.7 - 4.6
25/05:00pm 15.9 17.4 14.6 92 0.7 CALM 0 0 0 0 999.6 - 4.6
25/04:30pm 15.8 17.4 14.8 94 0.6 CALM 0 0 0 0 999.7 - 4.6
25/04:00pm 16.0 17.1 14.7 92 0.7 ENE 2 6 1 3 1000.0 - 4.6
25/03:30pm 15.9 16.1 14.6 92 0.7 NNE 7 11 4 6 1000.2 - 4.6
25/03:00pm 16.2 15.6 14.7 91 0.9 ENE 11 13 6 7 1000.5 1000.5 4.6
25/02:30pm 16.2 16.0 14.6 90 0.9 ENE 9 11 5 6 1000.8 - 4.6
25/02:00pm 15.9 16.1 14.3 90 0.9 NE 6 7 3 4 1000.9 - 4.6
25/01:32pm 15.7 16.6 14.1 90 0.9 W 2 7 1 4 1001.1 - 4.6
25/01:30pm 15.7 16.7 14.2 91 0.9 WNW 2 7 1 4 1001.1 - 4.6
25/01:00pm 14.7 14.9 14.2 97 0.3 NNW 6 9 3 5 1001.7 - 4.6
25/12:30pm 14.5 15.8 14.2 98 0.2 CALM 0 0 0 0 1001.3 - 4.6
25/12:14pm 14.7 16.1 14.4 98 0.2 CALM 0 0 0 0 1001.9 - 4.6
25/12:00pm 14.5 15.8 14.2 98 0.2 CALM 0 - 0 - 1002.1 1002.1 4.6
25/11:45am 14.5 15.8 14.2 98 0.2 CALM 0 - 0 - 1002.8 - 4.2
25/11:30am 14.5 15.8 14.2 98 0.2 CALM 0 0 0 0 1003.0 - 4.0
25/11:16am 14.5 15.8 14.2 98 0.2 CALM 0 - 0 - 1003.3 - 3.2
25/11:00am 14.6 16.0 14.3 98 0.2 CALM 0 0 0 0 1003.5 - 3.0
25/10:52am 14.6 16.0 14.3 98 0.2 CALM 0 0 0 0 1003.5 - 3.0
25/10:30am 14.7 16.1 14.4 98 0.2 CALM 0 - 0 - 1003.6 - 2.8
25/10:20am 14.5 15.8 14.2 98 0.2 CALM 0 - 0 - 1003.8 - 2.4
25/10:16am 14.5 15.8 14.2 98 0.2 CALM 0 - 0 - 1003.9 - 2.4
25/10:00am 14.5 15.9 14.3 99 0.1 CALM 0 - 0 - 1004.1 - 2.2
25/09:58am 14.6 16.0 14.4 99 0.1 CALM 0 - 0 - 1004.2 - 2.2
25/09:57am 14.5 15.9 14.3 99 0.1 CALM 0 0 0 0 1004.2 - 2.2
25/09:48am 14.5 15.9 14.3 99 0.1 CALM 0 - 0 - 1004.4 - 2.0
25/09:30am 14.4 15.7 14.1 98 0.2 CALM 0 - 0 - 1004.8 - 1.0
25/09:25am 14.3 15.6 14.0 98 0.2 CALM 0 0 0 0 1004.9 - 0.6
25/09:00am 14.3 15.6 14.0 98 0.2 CALM 0 - 0 - 1005.3 1005.3 7.8
25/08:30am 14.1 15.3 13.8 98 0.2 CALM 0 - 0 - 1005.7 - 7.6
25/08:10am 14.2 15.4 13.9 98 0.2 CALM 0 - 0 - 1005.9 - 7.0
25/08:02am 14.1 15.3 13.8 98 0.2 CALM 0 0 0 0 1005.9 - 6.8
25/08:00am 14.1 15.3 13.8 98 0.2 CALM 0 0 0 0 1005.9 - 6.8
25/07:42am 14.1 15.3 13.8 98 0.2 CALM 0 0 0 0 1006.0 - 6.2
25/07:40am 14.1 15.3 13.8 98 0.2 CALM 0 0 0 0 1006.1 - 6.0
25/07:36am 14.1 15.3 13.8 98 0.2 CALM 0 0 0 0 1006.1 - 6.0
25/07:30am 14.1 15.3 13.8 98 0.2 CALM 0 - 0 - 1006.1 - 5.8
25/07:00am 14.2 15.4 13.9 98 0.2 CALM 0 - 0 - 1006.3 - 5.2
25/06:47am 14.3 14.8 14.0 98 0.2 NW 4 9 2 5 1006.6 - 5.0
25/06:30am 14.4 15.6 13.9 97 0.3 CALM 0 - 0 - 1006.4 - 3.6
25/06:00am 14.3 15.5 13.8 97 0.3 CALM 0 - 0 - 1006.9 1006.8 2.2
25/05:30am 14.5 15.8 14.0 97 0.3 CALM 0 4 0 2 1007.4 - 1.2
25/05:23am 14.4 15.3 13.9 97 0.3 W 2 7 1 4 1007.5 - 1.0
25/05:16am 14.5 15.8 14.0 97 0.3 CALM 0 0 0 0 1007.6 - 0.8
25/05:00am 14.5 15.8 14.0 97 0.3 CALM 0 7 0 4 1007.7 - 0.6
25/04:52am 14.5 15.4 14.0 97 0.3 W 2 7 1 4 1007.9 - 0.6
25/04:30am 14.5 15.8 14.0 97 0.3 CALM 0 0 0 0 1008.1 - 0.4
25/04:00am 14.6 15.1 14.0 96 0.3 W 4 6 2 3 1008.1 - 0.0
25/03:30am 14.7 14.9 14.1 96 0.3 W 6 9 3 5 1008.5 - 0.0
25/03:00am 15.3 15.6 14.5 95 0.5 NNW 6 11 3 6 1008.9 1008.7 0.0
25/02:30am 15.1 15.2 14.5 96 0.3 NNW 7 11 4 6 1009.4 - 0.0
25/02:00am 15.1 15.4 14.5 96 0.3 NW 6 9 3 5 1010.2 - 0.0
25/01:30am 15.2 15.4 14.7 97 0.3 NW 7 11 4 6 1010.6 - 0.0
25/01:00am 14.5 15.0 14.0 97 0.3 SSW 4 7 2 4 1011.0 - 0.0
25/12:30am 14.5 14.6 14.0 97 0.3 W 6 11 3 6 1011.2 - 0.0
25/12:00am 14.5 14.5 14.2 98 0.2 WNW 7 11 4 6 1011.9 1011.8 0.0
 
Date/Time
EST
Temp
°C
App
Temp
°C
Dew
Point
°C
Rel
Hum
%
Delta-T
°C
Wind Press
QNH
hPa
Press
MSL
hPa
Rain since
9am
mm
Dir  Spd
km/h
Gust
km/h
Spd
kts
Gust
kts
24/11:30pm 14.7 14.7 14.2 97 0.3 N 7 11 4 6 1012.5 - 0.0
24/11:00pm 14.5 15.7 13.7 95 0.4 CALM 0 0 0 0 1012.9 - 0.0
24/10:30pm 15.0 16.0 14.2 95 0.5 NW 2 7 1 4 1013.5 - 0.0
24/10:00pm 15.2 16.5 14.2 94 0.6 CALM 0 6 0 3 1013.6 - 0.0
24/09:30pm 15.2 15.9 14.4 95 0.5 WSW 4 7 2 4 1013.8 - 0.0
24/09:00pm 15.2 15.5 14.4 95 0.5 NW 6 9 3 5 1014.1 1014.0 0.0
24/08:30pm 15.2 15.5 14.6 96 0.3 W 6 9 3 5 1014.1 - 0.0
24/08:00pm 15.2 15.5 14.4 95 0.5 WNW 6 11 3 6 1014.3 - 0.0
24/07:30pm 15.4 15.6 14.8 96 0.3 WNW 7 11 4 6 1014.5 - 0.0
24/07:12pm 15.6 16.1 15.0 96 0.3 WNW 6 13 3 7 1014.7 - 0.0
24/07:00pm 15.7 15.3 15.1 96 0.3 N 11 17 6 9 1014.8 - 0.0
24/06:56pm 15.6 15.1 15.0 96 0.3 N 11 15 6 8 1014.8 - 0.0
24/06:30pm 15.5 14.9 14.7 95 0.5 N 11 15 6 8 1014.7 - 0.0
24/06:00pm 15.7 15.5 14.7 94 0.6 N 9 13 5 7 1014.8 1014.8 0.0
24/05:30pm 16.1 17.7 14.8 92 0.7 CALM 0 0 0 0 1014.9 - 0.0
24/05:19pm 16.2 17.7 14.6 90 0.9 CALM 0 0 0 0 1015.0 - 0.0
24/05:00pm 16.5 18.0 14.7 89 1.0 CALM 0 4 0 2 1015.1 - 0.0
24/04:32pm 16.6 18.1 14.6 88 1.1 CALM 0 6 0 3 1015.3 - 0.0
24/04:30pm 16.6 18.1 14.6 88 1.1 CALM 0 6 0 3 1015.4 - 0.0
24/04:29pm 16.6 18.1 14.6 88 1.1 CALM 0 7 0 4 1015.4 - 0.0
24/04:00pm 16.7 16.7 14.3 86 1.4 NNE 7 11 4 6 1015.6 - 0.0
24/03:30pm 16.8 17.0 14.3 85 1.4 NNE 6 9 3 5 1015.8 - 0.0
24/03:00pm 17.3 17.5 14.2 82 1.8 NNE 6 9 3 5 1016.1 1016.1 0.0
24/02:30pm 16.8 18.2 14.3 85 1.4 CALM 0 2 0 1 1016.4 - 0.0
24/02:04pm 16.8 18.2 14.4 86 1.4 CALM 0 6 0 3 1016.7 - 0.0
24/02:00pm 16.7 17.7 14.3 86 1.4 ENE 2 6 1 3 1016.7 - 0.0
24/01:30pm 16.4 17.7 14.1 86 1.3 CALM 0 0 0 0 1017.3 - 0.0
24/01:00pm 16.6 17.8 13.9 84 1.5 CALM 0 0 0 0 1017.8 - 0.0
24/12:30pm 16.7 17.1 13.8 83 1.6 N 4 7 2 4 1018.4 - 0.0
24/12:00pm 16.8 17.5 13.5 81 1.9 WNW 2 7 1 4 1019.1 1019.1 0.0
24/11:30am 16.3 16.9 13.2 82 1.7 WNW 2 6 1 3 1019.5 - 0.0
24/11:00am 16.3 16.3 13.6 84 1.5 W 6 9 3 5 1020.0 - 0.0
24/10:30am 15.9 16.7 13.6 86 1.3 W 2 7 1 4 1020.4 - 0.0
24/10:00am 15.4 16.4 13.1 86 1.3 CALM 0 6 0 3 1020.8 - 0.0
24/09:30am 15.1 14.9 13.0 87 1.2 SW 6 9 3 5 1021.0 - 0.0
24/09:24am 15.1 15.7 13.0 87 1.2 SW 2 9 1 5 1021.1 - 0.0
24/09:00am 14.6 15.1 12.8 89 1.0 WSW 2 7 1 4 1021.3 1021.2 1.2
24/08:30am 14.3 14.8 12.7 90 0.9 W 2 7 1 4 1021.7 - 1.2
24/08:00am 14.1 13.8 12.7 91 0.8 WNW 6 7 3 4 1021.7 - 1.2
24/07:30am 13.9 14.7 12.6 92 0.7 CALM 0 0 0 0 1021.6 - 1.2
24/07:00am 13.7 14.5 12.4 92 0.7 CALM 0 0 0 0 1021.6 - 1.2
24/06:30am 13.7 13.1 12.4 92 0.7 NW 7 9 4 5 1021.9 - 1.2
24/06:00am 13.6 13.6 12.3 92 0.7 WNW 4 7 2 4 1021.9 1021.9 1.2
24/05:35am 13.5 13.4 12.2 92 0.7 WSW 4 7 2 4 1021.9 - 1.2
24/05:30am 13.5 13.8 12.2 92 0.7 SSW 2 7 1 4 1022.0 - 1.2
24/05:00am 13.6 13.6 12.5 93 0.6 WSW 4 11 2 6 1022.1 - 1.2
24/04:30am 13.4 12.9 12.5 94 0.5 NW 7 11 4 6 1022.2 - 1.2
24/04:00am 13.2 12.7 12.1 93 0.6 WSW 6 9 3 5 1022.3 - 1.2
24/03:50am 13.0 13.2 11.9 93 0.6 WSW 2 7 1 4 1022.1 - 1.2
24/03:30am 13.0 13.3 12.1 94 0.5 WNW 2 7 1 4 1022.3 - 1.2
24/03:00am 13.2 12.6 12.3 94 0.5 WNW 7 9 4 5 1022.5 1022.5 1.2
24/02:30am 13.1 12.2 11.5 90 0.9 S 7 9 4 5 1022.7 - 1.2
24/02:00am 13.4 12.7 11.5 88 1.0 SSW 6 7 3 4 1023.0 - 1.2
24/01:30am 13.7 13.4 11.6 87 1.1 S 4 7 2 4 1023.5 - 1.2
24/01:00am 13.8 13.0 11.7 87 1.1 S 7 11 4 6 1023.8 - 1.2
24/12:30am 13.8 12.6 11.7 87 1.1 S 9 11 5 6 1024.0 - 1.2
24/12:00am 13.9 12.4 11.8 87 1.1 S 11 15 6 8 1024.3 1024.3 1.2
 
Date/Time
EST
Temp
°C
App
Temp
°C
Dew
Point
°C
Rel
Hum
%
Delta-T
°C
Wind Press
QNH
hPa
Press
MSL
hPa
Rain since
9am
mm
Dir  Spd
km/h
Gust
km/h
Spd
kts
Gust
kts
23/11:30pm 13.9 12.7 11.6 86 1.2 S 9 13 5 7 1024.6 - 1.2
23/11:00pm 13.8 12.6 11.5 86 1.2 S 9 13 5 7 1024.9 - 1.2
23/10:30pm 13.8 12.9 11.5 86 1.2 S 7 11 4 6 1025.1 - 1.2
23/10:00pm 13.7 12.9 11.6 87 1.1 S 7 11 4 6 1025.4 - 1.2

Other Formats:

Comma delimited format used in spreadsheet applications
http://www.bom.gov.au/fwo/IDT60801/IDT60801.95981.axf

JavaScript Object Notation format (JSON) in row-major order
http://www.bom.gov.au/fwo/IDT60801/IDT60801.95981.json